Time;durP1;ratioP1;P1;durP2;ratioP2;P2;SDS_P1;SDS_P2;PMS_P1;PMS_P2;Temp;Humidity;BMP_temperature;BMP_pressure;BME280_temperature;BME280_humidity;BME280_pressure;Samples;Min_cycle;Max_cycle;Signal;HPM_P1;HPM_P2
2023/07/31 00:00:12;;;;;;;2.10;1.73;;;14.80;99.90;;;;;;5090969;28;20514;-75
2023/07/31 00:02:39;;;;;;;1.73;1.43;;;14.80;99.90;;;;;;5091398;28;20463;-75
2023/07/31 00:05:06;;;;;;;4.30;1.57;;;14.80;99.90;;;;;;5090911;28;20456;-75
2023/07/31 00:07:33;;;;;;;1.77;1.67;;;14.80;99.90;;;;;;5090668;28;20491;-75
2023/07/31 00:10:02;;;;;;;1.40;1.30;;;14.70;99.90;;;;;;5090993;28;20459;-75
2023/07/31 00:12:29;;;;;;;2.20;1.77;;;14.80;99.90;;;;;;5095512;28;20462;-75
2023/07/31 00:14:55;;;;;;;2.73;1.30;;;14.80;99.90;;;;;;5111214;28;20464;-76
2023/07/31 00:17:22;;;;;;;2.20;1.60;;;14.70;99.90;;;;;;5110671;28;20477;-75
2023/07/31 00:19:50;;;;;;;1.63;1.43;;;14.70;99.90;;;;;;5111298;28;20488;-75
2023/07/31 00:22:17;;;;;;;2.43;1.83;;;14.70;99.90;;;;;;5110953;28;20510;-76
2023/07/31 00:24:44;;;;;;;1.80;1.70;;;14.70;99.90;;;;;;5111417;28;20458;-75
2023/07/31 00:27:12;;;;;;;2.20;2.00;;;14.70;99.90;;;;;;5110400;28;20466;-76
2023/07/31 00:29:38;;;;;;;2.07;1.57;;;14.60;99.90;;;;;;5111032;28;20460;-76
2023/07/31 00:32:06;;;;;;;1.70;1.60;;;14.60;99.90;;;;;;5110257;28;20462;-76
2023/07/31 00:34:33;;;;;;;3.80;1.60;;;14.50;99.90;;;;;;5095469;28;20810;-75
2023/07/31 00:37:00;;;;;;;1.93;1.53;;;14.50;99.90;;;;;;5110041;28;20468;-76
2023/07/31 00:39:26;;;;;;;3.93;2.13;;;14.50;99.90;;;;;;5085791;28;21009;-75
2023/07/31 00:41:53;;;;;;;2.27;1.70;;;14.50;99.90;;;;;;5103467;28;20464;-75
2023/07/31 00:44:21;;;;;;;1.93;1.50;;;14.50;99.90;;;;;;5090155;28;21117;-76
2023/07/31 00:46:49;;;;;;;2.40;2.20;;;14.50;99.90;;;;;;5090448;28;20466;-76
2023/07/31 00:49:16;;;;;;;2.70;1.87;;;14.50;99.90;;;;;;5100514;28;20847;-76
2023/07/31 00:51:43;;;;;;;2.27;1.90;;;14.40;99.90;;;;;;5110773;28;20957;-75
2023/07/31 00:54:10;;;;;;;9.80;2.10;;;14.40;99.90;;;;;;5110136;28;20969;-76
2023/07/31 00:56:38;;;;;;;2.70;1.40;;;14.50;99.90;;;;;;5110400;28;20470;-76
2023/07/31 00:59:05;;;;;;;2.90;1.47;;;14.50;99.90;;;;;;5109855;28;20890;-75
2023/07/31 01:01:33;;;;;;;3.00;1.90;;;14.50;99.90;;;;;;5090131;28;20462;-75
2023/07/31 01:04:00;;;;;;;3.87;1.83;;;14.50;99.90;;;;;;5090381;28;20462;-75
2023/07/31 01:06:37;;;;;;;1.70;1.40;;;14.40;99.90;;;;;;5110044;28;20461;-75
2023/07/31 01:09:09;;;;;;;2.10;1.30;;;14.40;99.90;;;;;;5110189;28;20498;-76
2023/07/31 01:11:42;;;;;;;1.83;1.70;;;14.40;99.90;;;;;;5110360;28;20833;-75
2023/07/31 01:14:08;;;;;;;4.87;1.50;;;14.40;99.90;;;;;;5100911;28;20459;-75
2023/07/31 01:16:36;;;;;;;1.77;1.50;;;14.50;99.90;;;;;;5089677;28;20871;-76
2023/07/31 01:19:03;;;;;;;2.87;1.80;;;14.50;99.90;;;;;;5089923;28;20850;-76
2023/07/31 01:21:42;;;;;;;2.23;1.80;;;14.50;99.90;;;;;;5089944;28;20455;-75
2023/07/31 01:24:29;;;;;;;1.80;1.70;;;14.50;99.90;;;;;;5089689;28;20494;-75
2023/07/31 01:27:07;;;;;;;1.83;1.63;;;14.50;99.90;;;;;;5089661;28;20452;-75
2023/07/31 01:29:39;;;;;;;1.60;1.50;;;14.50;99.90;;;;;;5089935;28;20993;-75
2023/07/31 01:32:08;;;;;;;1.73;1.63;;;14.50;99.90;;;;;;5089765;28;20938;-75
2023/07/31 01:34:36;;;;;;;1.50;1.40;;;14.50;99.90;;;;;;5089880;28;20452;-75
2023/07/31 01:37:03;;;;;;;2.00;1.73;;;14.50;99.90;;;;;;5097586;28;20824;-75
2023/07/31 01:39:30;;;;;;;2.50;1.43;;;14.50;99.90;;;;;;5097716;28;20576;-75
2023/07/31 01:41:58;;;;;;;2.50;1.30;;;14.50;99.90;;;;;;5089821;28;20464;-75
2023/07/31 01:44:24;;;;;;;1.97;1.67;;;14.50;99.90;;;;;;5089331;28;20464;-75
2023/07/31 01:46:51;;;;;;;5.70;1.67;;;14.50;99.90;;;;;;5089459;28;20733;-75
2023/07/31 01:49:18;;;;;;;2.03;1.83;;;14.50;99.90;;;;;;5092525;28;20483;-75
2023/07/31 01:51:45;;;;;;;1.87;1.60;;;14.50;99.90;;;;;;5093892;28;20478;-75
2023/07/31 01:54:12;;;;;;;1.40;1.27;;;14.50;99.90;;;;;;5093421;28;20462;-75
2023/07/31 01:56:38;;;;;;;3.07;1.60;;;14.50;99.90;;;;;;5093360;28;20488;-75
2023/07/31 01:59:06;;;;;;;1.87;1.27;;;14.50;99.90;;;;;;5093463;28;20996;-75
2023/07/31 02:01:33;;;;;;;2.30;1.60;;;14.40;99.90;;;;;;5097791;28;20463;-75
2023/07/31 02:04:00;;;;;;;1.93;1.50;;;14.40;99.90;;;;;;5114159;28;20457;-76
2023/07/31 02:06:26;;;;;;;1.73;1.50;;;14.40;99.90;;;;;;5113369;28;20469;-76
2023/07/31 02:08:53;;;;;;;1.90;1.70;;;14.30;99.90;;;;;;5113568;28;20826;-76
2023/07/31 02:11:20;;;;;;;1.80;1.40;;;14.20;99.90;;;;;;5113435;28;20461;-76
2023/07/31 02:13:46;;;;;;;2.17;1.60;;;14.20;99.90;;;;;;5113861;28;20463;-76
2023/07/31 02:16:14;;;;;;;1.73;1.63;;;14.20;99.90;;;;;;5113293;28;20548;-76
2023/07/31 02:18:41;;;;;;;2.00;1.40;;;14.20;99.90;;;;;;5113099;28;20493;-75
2023/07/31 02:21:08;;;;;;;1.60;1.40;;;14.10;99.90;;;;;;5113586;28;20837;-75
2023/07/31 02:23:35;;;;;;;1.60;1.43;;;14.10;99.90;;;;;;5113449;28;20467;-76
2023/07/31 02:26:01;;;;;;;1.20;1.10;;;14.10;99.90;;;;;;5097798;28;20829;-75
2023/07/31 02:28:28;;;;;;;1.53;1.43;;;14.10;99.90;;;;;;5092288;28;20485;-75
2023/07/31 02:30:55;;;;;;;1.80;1.50;;;14.10;99.90;;;;;;5093007;28;20989;-76
2023/07/31 02:33:23;;;;;;;3.30;1.60;;;14.10;99.90;;;;;;5092614;28;20459;-75
2023/07/31 02:35:49;;;;;;;1.97;1.60;;;14.00;99.90;;;;;;5093015;28;20460;-75
2023/07/31 02:38:16;;;;;;;2.50;1.80;;;14.00;99.90;;;;;;5092010;28;21017;-75
2023/07/31 02:40:43;;;;;;;2.73;1.70;;;13.90;99.90;;;;;;5093027;28;20478;-76
2023/07/31 02:43:10;;;;;;;1.60;1.50;;;13.90;99.90;;;;;;5138235;22;20483;-92
2023/07/31 02:45:36;;;;;;;2.63;1.60;;;13.90;99.90;;;;;;5086954;28;20457;-92
2023/07/31 02:48:04;;;;;;;2.77;1.60;;;13.90;99.90;;;;;;5080926;28;20464;-91
2023/07/31 02:50:32;;;;;;;2.03;1.80;;;13.90;99.90;;;;;;5090488;28;20498;-91
2023/07/31 02:52:59;;;;;;;2.33;1.70;;;13.90;99.90;;;;;;5111858;28;20905;-92
2023/07/31 02:55:26;;;;;;;1.87;1.60;;;13.90;99.90;;;;;;5084544;28;20493;-92
2023/07/31 02:57:53;;;;;;;2.43;1.77;;;13.90;99.90;;;;;;5082683;28;20452;-92
2023/07/31 03:00:20;;;;;;;3.97;2.00;;;13.90;99.90;;;;;;5082176;28;20579;-91
2023/07/31 03:02:47;;;;;;;1.97;1.83;;;13.90;99.90;;;;;;5087563;28;20486;-92
2023/07/31 03:05:13;;;;;;;3.90;1.70;;;13.90;99.90;;;;;;5085885;28;20462;-91
2023/07/31 03:07:42;;;;;;;2.80;1.70;;;13.90;99.90;;;;;;5086132;28;20951;-91
2023/07/31 03:10:09;;;;;;;2.47;1.80;;;13.90;99.90;;;;;;5086347;28;20456;-91
2023/07/31 03:12:36;;;;;;;2.50;1.73;;;13.90;99.90;;;;;;5085820;28;20493;-92
2023/07/31 03:15:03;;;;;;;2.13;1.77;;;13.80;99.90;;;;;;5085682;28;20462;-91
2023/07/31 03:17:29;;;;;;;2.90;1.73;;;13.80;99.90;;;;;;5083489;28;20473;-91
2023/07/31 03:19:56;;;;;;;2.73;1.77;;;13.80;99.90;;;;;;5088293;28;21031;-92
2023/07/31 03:22:23;;;;;;;3.27;1.83;;;13.90;99.90;;;;;;5094522;28;20482;-92
2023/07/31 03:24:51;;;;;;;3.87;1.60;;;13.80;99.90;;;;;;5094559;28;20464;-92
2023/07/31 03:27:19;;;;;;;2.47;2.00;;;13.90;99.90;;;;;;5094534;28;20469;-91
2023/07/31 03:29:55;;;;;;;2.63;1.90;;;13.90;99.90;;;;;;5094933;28;20462;-91
2023/07/31 03:32:22;;;;;;;1.87;1.57;;;13.80;99.90;;;;;;5077105;28;20485;-91
2023/07/31 03:34:48;;;;;;;1.90;1.80;;;13.90;99.90;;;;;;5074421;28;20824;-91
2023/07/31 03:37:15;;;;;;;2.27;1.70;;;13.90;99.90;;;;;;5075294;28;20459;-90
2023/07/31 03:39:42;;;;;;;1.90;1.70;;;13.90;99.90;;;;;;5074507;28;20487;-91
2023/07/31 03:42:10;;;;;;;3.13;1.70;;;14.00;99.90;;;;;;5074057;28;20450;-91
2023/07/31 03:44:37;;;;;;;3.07;2.03;;;14.00;99.90;;;;;;5074189;28;20458;-91
2023/07/31 03:47:08;;;;;;;1.50;1.40;;;14.10;99.90;;;;;;5088012;28;20438;-93
2023/07/31 03:49:35;;;;;;;1.70;1.40;;;14.10;99.90;;;;;;5089581;28;20494;-94
2023/07/31 03:52:01;;;;;;;2.23;1.40;;;14.10;99.90;;;;;;5087109;22;20504;-69
2023/07/31 03:54:28;;;;;;;2.17;1.80;;;14.10;99.90;;;;;;5075924;28;21093;-69
2023/07/31 03:56:55;;;;;;;2.90;1.90;;;14.10;99.90;;;;;;5077719;28;20462;-69
2023/07/31 03:59:23;;;;;;;1.93;1.50;;;14.00;99.90;;;;;;5076135;28;20472;-69
2023/07/31 04:01:49;;;;;;;3.13;1.40;;;14.00;99.90;;;;;;5077620;28;20466;-70
2023/07/31 04:04:16;;;;;;;3.83;1.87;;;14.00;99.90;;;;;;5077122;28;20462;-69
2023/07/31 04:06:43;;;;;;;1.90;1.70;;;13.90;99.90;;;;;;5078057;28;20833;-69
2023/07/31 04:09:09;;;;;;;2.40;1.60;;;13.90;99.90;;;;;;5082718;28;20480;-68
2023/07/31 04:11:36;;;;;;;1.73;1.40;;;13.90;99.90;;;;;;5079545;28;20457;-70
2023/07/31 04:14:03;;;;;;;1.73;1.60;;;14.00;99.90;;;;;;5077358;28;21032;-69
2023/07/31 04:16:31;;;;;;;2.40;1.60;;;13.90;99.90;;;;;;5076969;28;20455;-68
2023/07/31 04:18:57;;;;;;;1.50;1.40;;;14.00;99.90;;;;;;5077624;28;20481;-68
2023/07/31 04:21:24;;;;;;;2.73;1.90;;;14.00;99.90;;;;;;5077746;28;20489;-69
2023/07/31 04:23:51;;;;;;;1.97;1.60;;;14.10;99.90;;;;;;5076144;28;20467;-70
2023/07/31 04:26:18;;;;;;;7.00;1.70;;;14.10;99.90;;;;;;5078500;28;20469;-70
2023/07/31 04:28:44;;;;;;;1.83;1.63;;;14.10;99.90;;;;;;5072231;28;20571;-69
2023/07/31 04:31:11;;;;;;;2.60;1.70;;;14.20;99.90;;;;;;5074686;28;20463;-70
2023/07/31 04:33:39;;;;;;;2.63;1.93;;;14.20;99.90;;;;;;5069090;28;20851;-70
2023/07/31 04:36:06;;;;;;;1.57;1.47;;;14.30;99.90;;;;;;5069439;28;20480;-70
2023/07/31 04:38:32;;;;;;;2.23;1.87;;;14.30;99.90;;;;;;5069218;28;20481;-69
2023/07/31 04:40:59;;;;;;;2.47;1.80;;;14.40;99.90;;;;;;5069847;28;20483;-69
2023/07/31 04:43:26;;;;;;;2.13;1.80;;;14.40;99.90;;;;;;5069604;28;20460;-70
2023/07/31 04:45:53;;;;;;;1.80;1.20;;;14.50;99.90;;;;;;5069808;28;20806;-70
2023/07/31 04:48:20;;;;;;;2.07;1.53;;;14.50;99.90;;;;;;5069750;28;20469;-69
2023/07/31 04:50:48;;;;;;;1.70;1.40;;;14.50;99.90;;;;;;5070306;28;20451;-70
2023/07/31 04:53:15;;;;;;;1.67;1.40;;;14.60;99.90;;;;;;5069670;28;20462;-70
2023/07/31 04:55:42;;;;;;;1.60;1.50;;;14.70;99.90;;;;;;5070041;28;20467;-68
2023/07/31 04:58:08;;;;;;;2.43;1.80;;;14.80;99.90;;;;;;5069787;28;20481;-69
2023/07/31 05:00:35;;;;;;;1.50;1.40;;;14.90;99.90;;;;;;5070115;28;20495;-69
2023/07/31 05:03:02;;;;;;;2.77;1.60;;;14.90;99.90;;;;;;5070270;28;20461;-69
2023/07/31 05:05:28;;;;;;;2.43;1.67;;;15.00;99.90;;;;;;5069932;28;20461;-70
2023/07/31 05:07:57;;;;;;;1.57;1.23;;;15.00;99.90;;;;;;5069871;28;20552;-69
2023/07/31 05:10:23;;;;;;;4.00;1.90;;;15.10;99.90;;;;;;5070205;28;20468;-68
2023/07/31 05:12:50;;;;;;;2.03;1.33;;;15.10;99.90;;;;;;5070127;28;21055;-69
2023/07/31 05:15:17;;;;;;;2.23;1.60;;;15.10;99.90;;;;;;5069867;28;20468;-68
2023/07/31 05:17:43;;;;;;;2.77;1.53;;;15.10;99.90;;;;;;5069693;28;20834;-68
2023/07/31 05:20:11;;;;;;;2.43;1.70;;;15.20;99.90;;;;;;5069884;28;20574;-69
2023/07/31 05:22:37;;;;;;;1.47;1.37;;;15.20;99.90;;;;;;5069706;28;20465;-68
2023/07/31 05:25:06;;;;;;;2.10;1.70;;;15.20;99.90;;;;;;5069842;28;20458;-69
2023/07/31 05:27:33;;;;;;;3.33;2.00;;;15.20;99.90;;;;;;5069595;28;20484;-69
2023/07/31 05:30:00;;;;;;;3.10;1.80;;;15.20;99.90;;;;;;5069933;28;20826;-70
2023/07/31 05:32:27;;;;;;;2.37;1.90;;;15.20;99.90;;;;;;5069929;28;20516;-69
2023/07/31 05:34:54;;;;;;;3.00;1.60;;;15.20;99.90;;;;;;5069955;28;20469;-67
2023/07/31 05:37:20;;;;;;;1.93;1.73;;;15.30;99.90;;;;;;5069474;28;20881;-69
2023/07/31 05:39:47;;;;;;;2.20;1.90;;;15.30;99.90;;;;;;5069065;28;20471;-69
2023/07/31 05:42:15;;;;;;;2.30;1.60;;;15.40;99.90;;;;;;5069331;28;20851;-69
2023/07/31 05:44:42;;;;;;;2.33;1.40;;;15.40;99.90;;;;;;5069299;28;20458;-68
2023/07/31 05:47:09;;;;;;;1.40;1.30;;;15.50;99.90;;;;;;5068914;28;20454;-69
2023/07/31 05:49:35;;;;;;;1.87;1.50;;;15.50;99.90;;;;;;5069388;28;20478;-69
2023/07/31 05:52:02;;;;;;;2.13;1.90;;;15.60;99.90;;;;;;5069789;28;20451;-69
2023/07/31 05:54:29;;;;;;;3.50;1.80;;;15.70;99.90;;;;;;5069915;28;20457;-68
2023/07/31 05:56:55;;;;;;;1.93;1.70;;;15.80;99.90;;;;;;5069135;28;20458;-69
2023/07/31 05:59:23;;;;;;;2.70;1.63;;;15.90;99.90;;;;;;5069794;28;20477;-69
2023/07/31 06:01:50;;;;;;;1.57;1.47;;;15.90;99.90;;;;;;5069572;28;20486;-69
2023/07/31 06:04:17;;;;;;;2.23;1.80;;;16.00;99.90;;;;;;5069952;28;20454;-70
2023/07/31 06:06:43;;;;;;;2.67;1.90;;;16.00;99.90;;;;;;5068806;28;20460;-69
2023/07/31 06:09:10;;;;;;;3.00;1.87;;;16.10;99.90;;;;;;5069477;28;20485;-70
2023/07/31 06:11:37;;;;;;;3.00;1.60;;;16.20;99.90;;;;;;5069405;28;20541;-70
2023/07/31 06:14:03;;;;;;;2.73;2.00;;;16.30;99.90;;;;;;5069739;28;20466;-69
2023/07/31 06:16:31;;;;;;;2.03;1.80;;;16.40;99.90;;;;;;5069367;28;20457;-69
2023/07/31 06:18:58;;;;;;;2.00;1.40;;;16.40;99.90;;;;;;5061165;28;20530;-68
2023/07/31 06:21:25;;;;;;;2.40;1.80;;;16.40;99.90;;;;;;5069437;28;20484;-69
2023/07/31 06:23:52;;;;;;;1.70;1.60;;;16.50;99.90;;;;;;5069118;28;20455;-69
2023/07/31 06:26:19;;;;;;;2.67;1.73;;;16.60;99.90;;;;;;5069261;28;20462;-69
2023/07/31 06:28:46;;;;;;;2.23;1.60;;;16.60;99.90;;;;;;5068797;28;20479;-69
2023/07/31 06:31:13;;;;;;;1.90;1.30;;;16.70;99.90;;;;;;5069511;28;20516;-69
2023/07/31 06:33:41;;;;;;;1.63;1.53;;;16.70;99.90;;;;;;5069085;28;20465;-69
2023/07/31 06:36:07;;;;;;;2.27;1.70;;;16.80;99.90;;;;;;5071697;28;20459;-68
2023/07/31 06:38:34;;;;;;;2.07;1.73;;;16.90;99.90;;;;;;5072442;28;20485;-69
2023/07/31 06:41:01;;;;;;;1.73;1.30;;;16.80;99.90;;;;;;5072551;28;20999;-69
2023/07/31 06:43:27;;;;;;;2.20;1.70;;;16.90;99.90;;;;;;5072720;28;20988;-68
2023/07/31 06:45:54;;;;;;;2.67;2.00;;;17.00;99.90;;;;;;5072115;28;20828;-68
2023/07/31 06:48:21;;;;;;;4.50;2.23;;;17.10;99.90;;;;;;5072311;28;20479;-69
2023/07/31 06:50:49;;;;;;;2.30;1.63;;;17.20;99.90;;;;;;5072359;28;20527;-69
2023/07/31 06:53:15;;;;;;;2.83;1.43;;;17.30;99.90;;;;;;5072534;28;20841;-69
2023/07/31 06:55:42;;;;;;;1.60;1.50;;;17.40;99.90;;;;;;5072397;28;20470;-68
2023/07/31 06:58:09;;;;;;;2.73;1.60;;;17.50;99.90;;;;;;5072018;28;20483;-69
2023/07/31 07:00:35;;;;;;;1.60;1.40;;;17.60;99.90;;;;;;5072680;28;20485;-69
2023/07/31 07:03:02;;;;;;;2.60;1.80;;;17.70;99.90;;;;;;5064121;28;20784;-69
2023/07/31 07:05:29;;;;;;;2.00;1.83;;;17.80;99.90;;;;;;5072172;28;20455;-68
2023/07/31 07:07:57;;;;;;;2.23;1.70;;;17.80;99.90;;;;;;5071591;28;20474;-68
2023/07/31 07:10:23;;;;;;;2.00;1.40;;;17.90;99.90;;;;;;5072283;28;20969;-68
2023/07/31 07:12:50;;;;;;;3.77;1.80;;;18.00;99.90;;;;;;5071705;28;20463;-69
2023/07/31 07:15:17;;;;;;;3.80;2.03;;;18.10;99.90;;;;;;5071908;28;20881;-68
2023/07/31 07:17:44;;;;;;;4.47;1.97;;;18.10;99.90;;;;;;5071396;28;20482;-68
2023/07/31 07:20:11;;;;;;;2.53;1.60;;;18.10;99.90;;;;;;5071967;28;20451;-69
2023/07/31 07:22:37;;;;;;;2.83;1.87;;;18.20;99.90;;;;;;5071580;28;20454;-69
2023/07/31 07:25:07;;;;;;;1.50;1.40;;;18.20;99.90;;;;;;5063348;28;20454;-69
2023/07/31 07:27:34;;;;;;;3.40;1.70;;;18.30;99.90;;;;;;5071991;28;20892;-69
2023/07/31 07:30:00;;;;;;;2.17;1.97;;;18.30;99.90;;;;;;5071636;28;20450;-69
2023/07/31 07:32:27;;;;;;;3.40;1.90;;;18.30;99.90;;;;;;5072100;28;20830;-69
2023/07/31 07:34:54;;;;;;;2.03;1.63;;;18.20;99.90;;;;;;5071639;28;20958;-69
2023/07/31 07:37:20;;;;;;;2.53;1.50;;;18.10;99.90;;;;;;5071653;28;20454;-69
2023/07/31 07:39:47;;;;;;;3.50;1.50;;;18.00;99.90;;;;;;5071469;28;20451;-69
2023/07/31 07:42:15;;;;;;;2.87;1.83;;;17.90;99.90;;;;;;5072010;28;20837;-70
2023/07/31 07:44:42;;;;;;;2.77;1.70;;;17.80;99.90;;;;;;5071630;28;20462;-68
2023/07/31 07:47:09;;;;;;;1.40;1.30;;;18.00;99.90;;;;;;5070979;28;20462;-69
2023/07/31 07:49:36;;;;;;;2.57;1.43;;;18.00;99.90;;;;;;5071725;28;20462;-70
2023/07/31 07:52:04;;;;;;;2.73;1.83;;;18.20;99.90;;;;;;5071201;28;20459;-69
2023/07/31 07:54:31;;;;;;;1.93;1.73;;;18.30;99.90;;;;;;5071510;28;20463;-70
2023/07/31 07:56:58;;;;;;;2.77;1.80;;;18.30;99.90;;;;;;5070751;28;20543;-70
2023/07/31 07:59:26;;;;;;;2.60;1.60;;;18.40;99.90;;;;;;5071459;28;20485;-69
2023/07/31 08:01:53;;;;;;;2.20;2.00;;;18.50;99.90;;;;;;5070954;28;20484;-69
2023/07/31 08:04:19;;;;;;;2.23;1.77;;;18.70;99.90;;;;;;5071330;28;20850;-68
2023/07/31 08:06:46;;;;;;;2.17;1.77;;;18.80;99.90;;;;;;5070658;28;20455;-69
2023/07/31 08:09:13;;;;;;;2.30;2.10;;;18.80;99.90;;;;;;5071116;28;20483;-70
2023/07/31 08:11:40;;;;;;;3.63;1.60;;;18.80;99.90;;;;;;5071135;28;20451;-70
2023/07/31 08:14:06;;;;;;;2.97;1.40;;;18.90;99.90;;;;;;5071060;28;20458;-69
2023/07/31 08:16:34;;;;;;;1.97;1.67;;;18.90;99.90;;;;;;5070959;28;20839;-69
2023/07/31 08:19:01;;;;;;;3.20;1.80;;;19.00;99.90;;;;;;5070817;28;20475;-68
2023/07/31 08:21:28;;;;;;;3.77;1.70;;;19.10;99.90;;;;;;5071028;28;20982;-69
2023/07/31 08:23:54;;;;;;;2.03;1.83;;;19.20;99.90;;;;;;5070529;28;20459;-70
2023/07/31 08:26:21;;;;;;;2.07;1.63;;;19.20;99.90;;;;;;5070807;28;20487;-69
2023/07/31 08:28:48;;;;;;;2.73;1.70;;;19.10;99.90;;;;;;5070005;28;20529;-68
2023/07/31 08:31:15;;;;;;;4.03;1.97;;;19.20;99.90;;;;;;5071318;28;20458;-69
2023/07/31 08:33:43;;;;;;;1.73;1.63;;;19.30;99.90;;;;;;5070967;28;20486;-68
2023/07/31 08:36:09;;;;;;;2.17;1.83;;;19.40;99.90;;;;;;5070334;28;20462;-68
2023/07/31 08:38:36;;;;;;;2.30;1.87;;;19.30;99.90;;;;;;5070765;28;20474;-69
2023/07/31 08:41:05;;;;;;;2.87;1.93;;;19.40;99.90;;;;;;5070447;28;20482;-69
2023/07/31 08:43:31;;;;;;;1.70;1.60;;;19.40;99.90;;;;;;5119627;22;20858;-70
2023/07/31 08:45:58;;;;;;;2.67;2.00;;;19.40;99.90;;;;;;5050574;28;20455;-72
2023/07/31 08:48:26;;;;;;;3.70;2.00;;;19.50;99.90;;;;;;5055771;28;20470;-70
2023/07/31 08:50:54;;;;;;;2.10;1.73;;;19.60;99.90;;;;;;5070649;28;20452;-72
2023/07/31 08:53:21;;;;;;;2.53;1.67;;;19.70;99.90;;;;;;5068756;28;20455;-71
2023/07/31 08:55:50;;;;;;;2.43;2.03;;;19.80;99.90;;;;;;5063824;28;20491;-73
2023/07/31 08:58:19;;;;;;;3.17;2.20;;;19.90;99.90;;;;;;5060496;28;20916;-71
2023/07/31 09:00:47;;;;;;;3.43;2.17;;;20.00;99.90;;;;;;5070152;28;20452;-72
2023/07/31 09:03:16;;;;;;;2.13;1.60;;;20.00;99.90;;;;;;5069907;28;20457;-73
2023/07/31 09:05:44;;;;;;;3.90;1.60;;;20.00;99.90;;;;;;5069682;28;20513;-72
2023/07/31 09:08:14;;;;;;;2.50;1.90;;;20.10;99.90;;;;;;5069068;28;21164;-71
2023/07/31 09:10:42;;;;;;;3.00;2.40;;;20.20;99.90;;;;;;5069939;28;20819;-71
2023/07/31 09:13:10;;;;;;;2.60;2.00;;;20.40;99.90;;;;;;5069907;28;20455;-73
2023/07/31 09:15:37;;;;;;;2.73;1.60;;;20.50;99.90;;;;;;5069396;28;20465;-72
2023/07/31 09:18:05;;;;;;;4.53;2.00;;;20.60;99.90;;;;;;5069171;28;20489;-72
2023/07/31 09:20:32;;;;;;;3.17;2.20;;;20.50;99.90;;;;;;5069302;28;20472;-72
2023/07/31 09:23:07;;;;;;;2.50;2.00;;;20.50;99.90;;;;;;5069594;28;20540;-72
2023/07/31 09:25:36;;;;;;;3.10;1.90;;;20.50;99.90;;;;;;5069266;28;20522;-72
2023/07/31 09:28:05;;;;;;;3.73;2.40;;;20.40;99.90;;;;;;5069619;28;20481;-72
2023/07/31 09:30:32;;;;;;;3.10;1.90;;;20.30;99.90;;;;;;5069242;28;20471;-71
2023/07/31 09:33:03;;;;;;;4.50;1.90;;;20.10;99.90;;;;;;5069024;28;20821;-72
2023/07/31 09:35:31;;;;;;;2.43;2.00;;;20.00;99.90;;;;;;5069151;28;20464;-72
2023/07/31 09:38:00;;;;;;;3.83;2.07;;;19.90;99.90;;;;;;5069215;28;20484;-72
2023/07/31 09:40:31;;;;;;;2.60;1.87;;;19.90;99.90;;;;;;5069440;28;20888;-71
2023/07/31 09:43:01;;;;;;;4.20;2.20;;;19.80;99.90;;;;;;5069227;28;21007;-71
2023/07/31 09:45:29;;;;;;;2.00;1.70;;;19.70;99.90;;;;;;5068191;28;20463;-72
2023/07/31 09:47:56;;;;;;;2.37;2.00;;;19.60;99.90;;;;;;5068950;28;20469;-71
2023/07/31 09:50:24;;;;;;;2.93;2.13;;;19.60;99.90;;;;;;5069220;28;20538;-71
2023/07/31 09:52:51;;;;;;;2.17;1.80;;;19.70;99.90;;;;;;5069186;28;20455;-72
2023/07/31 09:55:19;;;;;;;3.87;1.87;;;19.90;99.90;;;;;;5052861;28;20489;-72
2023/07/31 09:57:49;;;;;;;3.83;2.07;;;20.00;99.90;;;;;;5068575;28;20479;-71
2023/07/31 10:00:18;;;;;;;3.23;2.07;;;20.10;99.90;;;;;;5068780;28;20524;-72
2023/07/31 10:02:47;;;;;;;5.17;2.00;;;20.30;99.90;;;;;;5069588;28;20572;-71
2023/07/31 10:05:16;;;;;;;2.80;2.20;;;20.40;99.90;;;;;;5068905;28;20461;-72
2023/07/31 10:07:46;;;;;;;5.73;3.17;;;20.40;99.90;;;;;;5068535;28;20485;-72
2023/07/31 10:10:15;;;;;;;2.50;1.53;;;20.50;99.90;;;;;;5070142;28;20487;-72
2023/07/31 10:12:42;;;;;;;2.10;1.90;;;20.60;99.90;;;;;;5073243;28;20544;-72
2023/07/31 10:15:10;;;;;;;3.00;1.77;;;20.80;99.90;;;;;;5072147;28;20454;-72
2023/07/31 10:17:39;;;;;;;3.33;2.10;;;21.00;99.90;;;;;;5072683;28;20537;-72
2023/07/31 10:20:08;;;;;;;2.33;1.80;;;21.20;99.90;;;;;;5068704;28;20881;-72
2023/07/31 10:22:36;;;;;;;3.53;1.90;;;21.30;99.90;;;;;;5072275;28;21216;-72
2023/07/31 10:25:03;;;;;;;2.97;1.80;;;21.30;99.90;;;;;;5072567;28;20957;-71
2023/07/31 10:27:30;;;;;;;2.70;1.70;;;21.30;99.90;;;;;;5067930;28;20497;-72
2023/07/31 10:29:59;;;;;;;2.30;1.90;;;21.30;99.90;;;;;;5052343;28;20463;-71
2023/07/31 10:32:27;;;;;;;2.70;1.67;;;21.40;99.90;;;;;;5065126;28;20451;-72
2023/07/31 10:34:57;;;;;;;1.63;1.53;;;21.30;99.90;;;;;;5072841;28;20827;-72
2023/07/31 10:37:26;;;;;;;2.73;1.70;;;21.40;99.90;;;;;;5072173;28;20464;-71
2023/07/31 10:39:58;;;;;;;2.40;1.93;;;21.40;99.90;;;;;;5072967;28;20451;-72
2023/07/31 10:42:30;;;;;;;3.03;1.60;;;21.30;99.90;;;;;;5056705;28;20478;-72
2023/07/31 10:45:03;;;;;;;2.93;2.17;;;21.30;99.90;;;;;;5072633;28;20455;-72
2023/07/31 10:47:30;;;;;;;7.03;2.07;;;21.40;99.90;;;;;;5071911;28;20490;-72
2023/07/31 10:50:19;;;;;;;1.90;1.80;;;21.60;99.90;;;;;;5072927;28;20514;-71
2023/07/31 10:52:49;;;;;;;2.53;2.00;;;21.80;99.90;;;;;;5072719;28;20454;-71
2023/07/31 10:55:32;;;;;;;2.87;1.87;;;21.80;99.90;;;;;;5072140;28;20545;-71
2023/07/31 10:58:07;;;;;;;2.37;2.10;;;21.90;99.90;;;;;;5069018;28;20848;-72
2023/07/31 11:00:34;;;;;;;2.43;2.10;;;21.90;99.90;;;;;;5057843;28;20966;-72
2023/07/31 11:03:04;;;;;;;3.23;1.87;;;21.90;99.90;;;;;;5071780;28;20519;-72
2023/07/31 11:05:53;;;;;;;2.47;1.63;;;21.90;99.90;;;;;;5071973;28;20482;-72
2023/07/31 11:08:23;;;;;;;3.80;2.10;;;21.70;99.90;;;;;;5071468;28;20475;-72
2023/07/31 11:10:51;;;;;;;2.67;1.97;;;21.60;99.90;;;;;;5072234;28;20455;-72
2023/07/31 11:13:18;;;;;;;2.30;1.83;;;21.50;99.90;;;;;;5072056;28;20462;-72
2023/07/31 11:15:46;;;;;;;4.70;2.30;;;21.40;99.90;;;;;;5072196;28;20874;-72
2023/07/31 11:18:13;;;;;;;4.83;2.37;;;21.40;99.90;;;;;;5071496;28;20517;-71
2023/07/31 11:20:40;;;;;;;2.70;2.23;;;21.40;99.90;;;;;;5071629;28;20462;-72
2023/07/31 11:23:11;;;;;;;2.10;1.80;;;21.40;99.90;;;;;;5071549;28;21016;-72
2023/07/31 11:25:40;;;;;;;2.53;1.90;;;21.30;99.90;;;;;;5071555;28;20454;-72
2023/07/31 11:28:08;;;;;;;2.90;2.00;;;21.10;99.90;;;;;;5071446;28;20565;-72
2023/07/31 11:30:35;;;;;;;3.10;2.00;;;21.00;99.90;;;;;;5071523;28;20455;-72
2023/07/31 11:33:03;;;;;;;5.60;2.13;;;21.00;99.90;;;;;;5071960;28;20461;-72
2023/07/31 11:35:31;;;;;;;3.43;1.93;;;20.90;99.90;;;;;;5071113;28;20454;-72
2023/07/31 11:37:58;;;;;;;2.80;1.90;;;21.00;99.90;;;;;;5071206;28;20482;-71
2023/07/31 11:40:29;;;;;;;3.40;2.10;;;20.90;99.90;;;;;;5070992;28;20464;-72
2023/07/31 11:42:56;;;;;;;3.47;2.07;;;21.00;99.90;;;;;;5071469;28;20481;-71
2023/07/31 11:45:26;;;;;;;2.63;2.10;;;20.90;99.90;;;;;;5070720;28;20462;-72
2023/07/31 11:47:53;;;;;;;2.03;1.60;;;21.00;99.90;;;;;;5070803;28;20482;-71
2023/07/31 11:50:19;;;;;;;3.33;2.17;;;21.00;99.90;;;;;;5070967;28;20957;-72
2023/07/31 11:52:49;;;;;;;1.93;1.73;;;21.00;99.90;;;;;;5071263;28;20518;-72
2023/07/31 11:55:17;;;;;;;2.30;1.87;;;21.00;99.90;;;;;;5070531;28;20454;-71
2023/07/31 11:57:47;;;;;;;2.40;2.10;;;20.90;99.90;;;;;;5070963;28;20847;-72
2023/07/31 12:00:15;;;;;;;2.33;1.97;;;21.00;99.90;;;;;;5070531;28;20826;-72
2023/07/31 12:02:43;;;;;;;2.33;2.10;;;21.00;99.90;;;;;;5062486;28;20496;-72
2023/07/31 12:05:11;;;;;;;2.10;1.90;;;20.90;99.90;;;;;;5069221;28;20460;-72
2023/07/31 12:07:46;;;;;;;4.03;2.00;;;20.90;99.90;;;;;;5050476;28;20589;-72
2023/07/31 12:10:22;;;;;;;2.43;1.77;;;20.90;99.90;;;;;;5051160;28;20462;-72
2023/07/31 12:13:01;;;;;;;2.17;1.97;;;20.90;99.90;;;;;;5070367;28;20464;-72
2023/07/31 12:15:44;;;;;;;4.50;2.20;;;20.80;99.90;;;;;;5069892;28;20457;-71
2023/07/31 12:18:12;;;;;;;2.53;2.00;;;20.80;99.90;;;;;;5070243;28;20855;-72
2023/07/31 12:20:44;;;;;;;2.53;1.90;;;20.80;99.90;;;;;;5070601;28;20457;-72
2023/07/31 12:23:27;;;;;;;3.50;2.80;;;20.80;99.90;;;;;;5060731;28;20517;-71
2023/07/31 12:26:02;;;;;;;3.30;1.97;;;20.80;99.90;;;;;;5050343;28;20466;-72
2023/07/31 12:28:31;;;;;;;2.47;2.00;;;20.80;99.90;;;;;;5049133;28;20474;-72
2023/07/31 12:31:00;;;;;;;5.67;2.40;;;20.80;99.90;;;;;;5056280;28;20997;-71
2023/07/31 12:33:32;;;;;;;3.20;2.20;;;20.80;99.90;;;;;;5059704;28;20718;-71
2023/07/31 12:36:01;;;;;;;3.00;2.20;;;20.80;99.90;;;;;;5046140;28;20476;-70
2023/07/31 12:38:29;;;;;;;3.30;2.13;;;20.80;99.90;;;;;;5036127;28;20518;-71
2023/07/31 12:40:58;;;;;;;3.40;2.27;;;20.80;99.90;;;;;;5035614;28;20888;-71
2023/07/31 12:43:24;;;;;;;2.37;2.17;;;20.80;99.90;;;;;;5050080;28;20536;-71
2023/07/31 12:45:54;;;;;;;2.20;2.00;;;20.70;99.90;;;;;;5056765;28;20838;-69
2023/07/31 12:48:21;;;;;;;3.27;2.40;;;20.70;99.90;;;;;;5054048;28;20672;-71
2023/07/31 12:50:48;;;;;;;2.97;2.30;;;20.80;99.90;;;;;;5049018;28;20904;-70